Time;durP1;ratioP1;P1;durP2;ratioP2;P2;SDS_P1;SDS_P2;PMS_P1;PMS_P2;Temp;Humidity;BMP_temperature;BMP_pressure;BME280_temperature;BME280_humidity;BME280_pressure;Samples;Min_cycle;Max_cycle;Signal;HPM_P1;HPM_P2
2022/08/28 00:00:31;;;;;;;2.92;1.00;;;;;;;;;;4979529;28;20049;-83
2022/08/28 00:02:56;;;;;;;2.55;0.80;;;;;;;;;;4963465;28;20041;-83
2022/08/28 00:05:23;;;;;;;8.02;1.58;;;;;;;;;;4963499;28;20026;-83
2022/08/28 00:07:49;;;;;;;1.85;1.00;;;;;;;;;;4963569;28;20120;-83
2022/08/28 00:10:18;;;;;;;4.13;1.15;;;;;;;;;;4979785;28;20079;-83
2022/08/28 00:12:44;;;;;;;2.50;1.10;;;;;;;;;;4962648;28;20060;-83
2022/08/28 00:15:12;;;;;;;2.85;0.80;;;;;;;;;;5011789;28;20048;-83
2022/08/28 00:17:38;;;;;;;3.90;1.02;;;;;;;;;;4963595;28;20381;-83
2022/08/28 00:20:05;;;;;;;2.28;1.08;;;;;;;;;;4979495;28;20042;-83
2022/08/28 00:22:31;;;;;;;2.65;0.90;;;;;;;;;;4979099;28;20100;-83
2022/08/28 00:24:56;;;;;;;2.83;0.80;;;;;;;;;;4991396;28;20496;-83
2022/08/28 00:30:06;;;;;;;2.95;0.95;;;;;;;;;;4991750;28;20026;-83
2022/08/28 00:32:33;;;;;;;3.60;0.90;;;;;;;;;;4991774;28;20052;-83
2022/08/28 00:35:00;;;;;;;2.90;1.20;;;;;;;;;;5010694;28;20034;-83
2022/08/28 00:37:26;;;;;;;2.67;0.90;;;;;;;;;;5011384;28;20072;-83
2022/08/28 00:39:52;;;;;;;1.92;0.80;;;;;;;;;;4995553;28;20060;-83
2022/08/28 00:42:18;;;;;;;2.65;0.70;;;;;;;;;;5007707;28;20477;-83
2022/08/28 00:44:44;;;;;;;3.67;1.33;;;;;;;;;;5008161;28;20030;-83
2022/08/28 00:47:10;;;;;;;2.67;1.00;;;;;;;;;;5011390;28;20210;-84
2022/08/28 00:49:37;;;;;;;2.25;0.85;;;;;;;;;;4979200;28;20029;-83
2022/08/28 00:52:07;;;;;;;3.88;1.40;;;;;;;;;;4978348;28;20469;-83
2022/08/28 00:54:51;;;;;;;1.52;0.70;;;;;;;;;;4979612;28;20112;-83
2022/08/28 00:57:30;;;;;;;2.35;0.63;;;;;;;;;;4964133;28;20037;-83
2022/08/28 00:59:56;;;;;;;1.90;0.90;;;;;;;;;;4978813;28;20033;-83
2022/08/28 01:02:21;;;;;;;2.47;1.00;;;;;;;;;;4962185;28;20539;-83
2022/08/28 01:04:47;;;;;;;3.50;0.80;;;;;;;;;;4994601;28;20397;-83
2022/08/28 01:07:13;;;;;;;2.67;1.10;;;;;;;;;;4978140;28;20037;-83
2022/08/28 01:09:41;;;;;;;3.08;0.77;;;;;;;;;;4994576;28;20030;-83
2022/08/28 01:12:14;;;;;;;2.53;0.63;;;;;;;;;;4962349;28;20037;-83
2022/08/28 01:14:40;;;;;;;2.38;0.75;;;;;;;;;;4995435;28;20052;-83
2022/08/28 01:17:06;;;;;;;3.17;0.95;;;;;;;;;;4962371;28;20030;-83
2022/08/28 01:19:36;;;;;;;2.85;0.70;;;;;;;;;;4958100;28;20474;-83
2022/08/28 01:22:08;;;;;;;3.15;0.90;;;;;;;;;;4958451;28;20504;-83
2022/08/28 01:24:35;;;;;;;2.85;0.65;;;;;;;;;;5023716;28;20043;-83
2022/08/28 01:27:00;;;;;;;3.60;0.80;;;;;;;;;;4991043;28;20051;-83
2022/08/28 01:29:27;;;;;;;2.17;0.60;;;;;;;;;;5007350;28;20409;-83
2022/08/28 01:31:53;;;;;;;2.00;0.80;;;;;;;;;;5006791;28;20047;-83
2022/08/28 01:34:18;;;;;;;2.60;0.80;;;;;;;;;;5007150;28;20038;-82
2022/08/28 01:36:46;;;;;;;2.95;0.88;;;;;;;;;;5011056;28;20557;-83
2022/08/28 01:39:17;;;;;;;3.47;0.70;;;;;;;;;;5014210;28;20041;-83
2022/08/28 01:41:45;;;;;;;3.35;1.05;;;;;;;;;;4986457;28;20081;-83
2022/08/28 01:44:12;;;;;;;2.45;0.57;;;;;;;;;;4978335;28;20026;-83
2022/08/28 01:46:40;;;;;;;3.33;0.80;;;;;;;;;;4977926;28;20457;-83
2022/08/28 01:49:05;;;;;;;4.00;1.15;;;;;;;;;;4977910;28;20041;-83
2022/08/28 01:51:33;;;;;;;2.67;1.05;;;;;;;;;;4993978;28;20400;-83
2022/08/28 01:53:59;;;;;;;1.80;0.50;;;;;;;;;;4978338;28;20505;-82
2022/08/28 01:56:24;;;;;;;1.85;0.50;;;;;;;;;;4977949;28;20081;-83
2022/08/28 01:58:50;;;;;;;2.78;0.60;;;;;;;;;;4962050;28;20095;-83
2022/08/28 02:01:19;;;;;;;2.88;1.00;;;;;;;;;;4961167;28;20042;-84
2022/08/28 02:03:45;;;;;;;2.17;0.60;;;;;;;;;;4978327;28;20034;-83
2022/08/28 02:06:10;;;;;;;1.48;0.50;;;;;;;;;;4977711;28;20048;-83
2022/08/28 02:08:36;;;;;;;1.50;0.50;;;;;;;;;;4961536;28;20084;-83
2022/08/28 02:11:05;;;;;;;2.60;0.70;;;;;;;;;;4993929;28;20034;-82
2022/08/28 02:13:30;;;;;;;2.88;0.60;;;;;;;;;;4961739;28;20551;-82
2022/08/28 02:15:56;;;;;;;2.30;0.50;;;;;;;;;;5010249;28;20042;-83
2022/08/28 02:18:21;;;;;;;2.60;0.77;;;;;;;;;;4994324;28;20042;-83
2022/08/28 02:20:47;;;;;;;2.85;1.20;;;;;;;;;;5010282;28;20133;-83
2022/08/28 02:23:12;;;;;;;1.40;0.43;;;;;;;;;;5009763;28;20041;-83
2022/08/28 02:25:38;;;;;;;1.27;0.52;;;;;;;;;;5026532;28;20455;-82
2022/08/28 02:28:04;;;;;;;2.75;0.77;;;;;;;;;;4993928;28;20120;-82
2022/08/28 02:30:29;;;;;;;4.03;0.85;;;;;;;;;;5009782;28;20149;-83
2022/08/28 02:32:55;;;;;;;2.22;0.60;;;;;;;;;;4977244;28;20046;-83
2022/08/28 02:35:21;;;;;;;2.95;0.75;;;;;;;;;;5000077;28;20041;-83
2022/08/28 02:37:48;;;;;;;3.35;0.70;;;;;;;;;;5000293;28;20033;-83
2022/08/28 02:40:14;;;;;;;2.88;0.65;;;;;;;;;;5000820;28;20037;-82
2022/08/28 02:42:40;;;;;;;3.90;1.00;;;;;;;;;;4981806;28;20036;-83
2022/08/28 02:45:10;;;;;;;4.30;0.95;;;;;;;;;;4980633;28;20026;-83
2022/08/28 02:47:36;;;;;;;2.80;0.65;;;;;;;;;;4997925;28;20045;-82
2022/08/28 02:50:02;;;;;;;1.80;0.52;;;;;;;;;;4981068;28;20037;-83
2022/08/28 02:52:28;;;;;;;3.20;0.70;;;;;;;;;;4980417;28;20496;-83
2022/08/28 02:54:55;;;;;;;2.13;0.60;;;;;;;;;;4980729;28;20042;-82
2022/08/28 02:57:21;;;;;;;1.95;0.60;;;;;;;;;;4965099;28;20084;-83
2022/08/28 02:59:46;;;;;;;3.45;0.65;;;;;;;;;;4980465;28;20124;-82
2022/08/28 03:02:12;;;;;;;3.25;0.80;;;;;;;;;;4996955;28;20049;-82
2022/08/28 03:04:37;;;;;;;1.80;0.70;;;;;;;;;;4964722;28;20392;-83
2022/08/28 03:07:03;;;;;;;2.53;0.73;;;;;;;;;;4979819;28;20046;-83
2022/08/28 03:09:28;;;;;;;2.13;0.60;;;;;;;;;;5012875;28;20410;-83
2022/08/28 03:11:54;;;;;;;3.00;0.90;;;;;;;;;;4996519;28;20045;-83
2022/08/28 03:14:20;;;;;;;3.88;0.70;;;;;;;;;;5013047;28;20038;-83
2022/08/28 03:16:45;;;;;;;3.13;1.13;;;;;;;;;;5013209;28;20115;-83
2022/08/28 03:19:12;;;;;;;2.35;0.80;;;;;;;;;;5004619;28;20026;-83
2022/08/28 03:21:37;;;;;;;2.63;0.60;;;;;;;;;;4961987;28;20042;-83
2022/08/28 03:24:03;;;;;;;3.38;0.60;;;;;;;;;;4978877;28;20690;-83
2022/08/28 03:26:28;;;;;;;2.60;0.70;;;;;;;;;;4963562;28;20416;-83
2022/08/28 03:28:56;;;;;;;4.18;0.70;;;;;;;;;;4980105;28;20038;-83
2022/08/28 03:31:23;;;;;;;2.47;0.60;;;;;;;;;;4980305;28;20050;-82
2022/08/28 03:33:49;;;;;;;4.63;0.57;;;;;;;;;;5012110;28;20033;-83
2022/08/28 03:36:17;;;;;;;4.50;0.63;;;;;;;;;;5011813;28;20041;-83
2022/08/28 03:38:42;;;;;;;3.13;0.70;;;;;;;;;;5012806;28;20037;-83
2022/08/28 03:41:12;;;;;;;3.03;0.70;;;;;;;;;;5015349;28;20033;-83
2022/08/28 03:43:38;;;;;;;3.13;0.60;;;;;;;;;;5029075;28;20029;-83
2022/08/28 03:46:05;;;;;;;2.60;0.73;;;;;;;;;;5027609;28;20092;-83
2022/08/28 03:48:32;;;;;;;1.73;0.73;;;;;;;;;;4963916;28;20053;-83
2022/08/28 03:50:59;;;;;;;2.97;0.80;;;;;;;;;;4963316;28;20041;-83
2022/08/28 03:53:27;;;;;;;3.15;1.00;;;;;;;;;;4980061;28;20504;-83
2022/08/28 03:55:53;;;;;;;2.53;0.65;;;;;;;;;;4964235;28;20042;-82
2022/08/28 03:58:19;;;;;;;2.63;0.95;;;;;;;;;;4963353;28;20030;-83
2022/08/28 04:00:44;;;;;;;3.00;0.90;;;;;;;;;;4963214;28;20045;-83
2022/08/28 04:03:11;;;;;;;6.53;1.02;;;;;;;;;;4979461;28;20050;-83
2022/08/28 04:05:38;;;;;;;2.13;1.00;;;;;;;;;;4963108;28;20030;-83
2022/08/28 04:08:04;;;;;;;3.33;1.38;;;;;;;;;;4963622;28;20033;-83
2022/08/28 04:10:31;;;;;;;4.45;1.63;;;;;;;;;;4963021;28;20070;-83
2022/08/28 04:12:58;;;;;;;4.05;1.27;;;;;;;;;;4979899;28;20034;-83
2022/08/28 04:15:23;;;;;;;5.18;1.13;;;;;;;;;;4963440;28;20037;-83
2022/08/28 04:17:49;;;;;;;3.60;1.38;;;;;;;;;;4979029;28;20034;-83
2022/08/28 04:20:14;;;;;;;2.72;1.17;;;;;;;;;;4979080;28;20121;-83
2022/08/28 04:22:39;;;;;;;3.70;1.02;;;;;;;;;;4995068;28;20046;-83
2022/08/28 04:25:05;;;;;;;2.90;1.08;;;;;;;;;;4995178;28;20452;-83
2022/08/28 04:27:31;;;;;;;4.53;1.23;;;;;;;;;;4995634;28;20414;-82
2022/08/28 04:29:56;;;;;;;3.67;1.17;;;;;;;;;;4995265;28;20069;-83
2022/08/28 04:32:22;;;;;;;3.90;1.17;;;;;;;;;;4994382;28;20509;-83
2022/08/28 04:34:48;;;;;;;3.03;1.13;;;;;;;;;;4979409;28;20138;-83
2022/08/28 04:37:14;;;;;;;4.82;1.35;;;;;;;;;;5011164;28;20095;-83
2022/08/28 04:39:40;;;;;;;2.95;1.13;;;;;;;;;;4979344;28;20080;-84
2022/08/28 04:42:05;;;;;;;3.58;1.65;;;;;;;;;;4994965;28;20408;-83
2022/08/28 04:44:31;;;;;;;2.95;1.58;;;;;;;;;;4979043;28;20420;-83
2022/08/28 04:46:56;;;;;;;7.40;1.40;;;;;;;;;;4994916;28;20026;-83
2022/08/28 04:49:22;;;;;;;3.78;1.30;;;;;;;;;;4994699;28;20048;-83
2022/08/28 04:51:47;;;;;;;5.28;1.48;;;;;;;;;;4977969;28;20109;-84
2022/08/28 04:54:12;;;;;;;3.65;1.38;;;;;;;;;;4994600;28;20041;-83
2022/08/28 04:56:39;;;;;;;4.88;1.67;;;;;;;;;;4962247;28;20030;-83
2022/08/28 04:59:05;;;;;;;4.07;1.65;;;;;;;;;;4961703;28;20623;-83
2022/08/28 05:01:31;;;;;;;5.47;1.20;;;;;;;;;;4977848;28;20042;-83
2022/08/28 05:03:58;;;;;;;5.88;1.55;;;;;;;;;;4978627;28;20030;-82
2022/08/28 05:06:25;;;;;;;4.90;1.88;;;;;;;;;;4962449;28;20084;-83
2022/08/28 05:08:52;;;;;;;3.70;1.40;;;;;;;;;;4962859;28;20127;-82
2022/08/28 05:11:20;;;;;;;5.30;1.48;;;;;;;;;;4978214;28;20405;-83
2022/08/28 05:13:46;;;;;;;4.40;1.60;;;;;;;;;;4978920;28;20049;-83
2022/08/28 05:16:11;;;;;;;4.78;1.65;;;;;;;;;;4978443;28;20033;-83
2022/08/28 05:18:37;;;;;;;6.50;1.90;;;;;;;;;;4994290;28;20052;-83
2022/08/28 05:21:03;;;;;;;3.78;1.65;;;;;;;;;;5010626;28;20026;-83
2022/08/28 05:23:28;;;;;;;4.90;1.77;;;;;;;;;;4994438;28;20120;-83
2022/08/28 05:25:54;;;;;;;4.22;1.90;;;;;;;;;;4978366;28;20030;-84
2022/08/28 05:28:19;;;;;;;3.75;1.60;;;;;;;;;;4994413;28;20038;-83
2022/08/28 05:30:45;;;;;;;4.22;1.95;;;;;;;;;;4977647;28;20065;-83
2022/08/28 05:33:12;;;;;;;4.65;2.42;;;;;;;;;;4977968;28;20029;-83
2022/08/28 05:35:39;;;;;;;6.18;2.15;;;;;;;;;;4994534;28;20034;-83
2022/08/28 05:38:05;;;;;;;4.70;2.08;;;;;;;;;;4994185;28;20054;-83
2022/08/28 05:40:31;;;;;;;4.53;2.30;;;;;;;;;;4977766;28;20133;-83
2022/08/28 05:42:56;;;;;;;5.40;2.10;;;;;;;;;;5010328;28;20026;-83
2022/08/28 05:45:22;;;;;;;6.18;2.28;;;;;;;;;;5009836;28;20060;-83
2022/08/28 05:47:47;;;;;;;5.88;2.60;;;;;;;;;;4978115;28;20029;-83
2022/08/28 05:50:13;;;;;;;4.43;2.10;;;;;;;;;;4977631;28;20034;-83
2022/08/28 05:52:39;;;;;;;4.72;1.90;;;;;;;;;;4961363;28;20042;-83
2022/08/28 05:55:06;;;;;;;8.60;2.95;;;;;;;;;;4961922;28;20457;-82
2022/08/28 05:57:32;;;;;;;6.63;2.30;;;;;;;;;;4992720;28;20408;-83
2022/08/28 05:59:57;;;;;;;5.47;2.00;;;;;;;;;;4975666;28;20128;-83
2022/08/28 06:02:25;;;;;;;4.03;1.98;;;;;;;;;;4960276;28;20045;-84
2022/08/28 06:04:52;;;;;;;5.20;2.42;;;;;;;;;;4960991;28;20034;-83
2022/08/28 06:07:18;;;;;;;4.35;1.90;;;;;;;;;;4961458;28;20080;-85
2022/08/28 06:09:43;;;;;;;5.30;2.45;;;;;;;;;;4978872;28;20069;-84
2022/08/28 06:12:09;;;;;;;5.88;2.35;;;;;;;;;;4981529;28;20088;-84
2022/08/28 06:14:34;;;;;;;5.85;2.42;;;;;;;;;;4980436;28;20064;-83
2022/08/28 06:17:00;;;;;;;8.70;2.30;;;;;;;;;;4997374;28;20440;-84
2022/08/28 06:19:26;;;;;;;5.90;2.53;;;;;;;;;;4982001;28;20496;-85
2022/08/28 06:21:57;;;;;;;6.47;3.17;;;;;;;;;;4997958;28;20037;-85
2022/08/28 06:24:24;;;;;;;9.18;2.92;;;;;;;;;;4981596;28;20034;-84
2022/08/28 06:26:51;;;;;;;9.15;3.60;;;;;;;;;;4998576;28;20053;-85
2022/08/28 06:29:18;;;;;;;8.48;3.30;;;;;;;;;;5014351;28;20399;-85
2022/08/28 06:31:43;;;;;;;7.18;2.88;;;;;;;;;;4981815;28;20070;-85
2022/08/28 06:34:10;;;;;;;7.40;3.28;;;;;;;;;;4981631;28;20471;-86
2022/08/28 06:36:40;;;;;;;6.35;3.17;;;;;;;;;;4981538;28;20132;-85
2022/08/28 06:39:10;;;;;;;9.13;3.25;;;;;;;;;;4982261;28;20100;-85
2022/08/28 06:41:41;;;;;;;8.88;2.80;;;;;;;;;;5030493;28;20049;-86
2022/08/28 06:44:09;;;;;;;10.18;3.35;;;;;;;;;;5014359;28;20538;-86
2022/08/28 06:46:34;;;;;;;7.18;3.65;;;;;;;;;;5001093;28;20038;-85
2022/08/28 06:49:05;;;;;;;7.63;3.00;;;;;;;;;;5010819;28;20166;-86
2022/08/28 06:51:31;;;;;;;8.27;3.58;;;;;;;;;;5010645;28;20034;-86
2022/08/28 06:53:57;;;;;;;6.28;3.17;;;;;;;;;;4994551;28;20049;-86
2022/08/28 06:56:23;;;;;;;9.48;2.78;;;;;;;;;;4994044;28;20038;-85
2022/08/28 06:58:50;;;;;;;8.98;3.03;;;;;;;;;;4994188;28;20030;-86
2022/08/28 07:01:21;;;;;;;4.72;3.08;;;;;;;;;;4994251;28;20088;-86
2022/08/28 07:03:51;;;;;;;15.45;3.13;;;;;;;;;;4979105;28;20046;-87
2022/08/28 07:06:18;;;;;;;9.07;3.35;;;;;;;;;;4995830;28;20034;-86
2022/08/28 07:08:43;;;;;;;8.07;3.38;;;;;;;;;;4977975;28;20038;-87
2022/08/28 07:11:27;;;;;;;10.48;3.42;;;;;;;;;;4994209;28;20031;-86
2022/08/28 07:13:54;;;;;;;11.13;4.15;;;;;;;;;;4994725;28;20043;-85
2022/08/28 07:16:23;;;;;;;13.50;3.78;;;;;;;;;;5010055;28;20038;-84
2022/08/28 07:18:52;;;;;;;15.02;4.05;;;;;;;;;;4977962;28;20033;-87
2022/08/28 07:21:19;;;;;;;7.75;3.78;;;;;;;;;;4993751;28;20476;-86
2022/08/28 07:23:45;;;;;;;10.80;3.45;;;;;;;;;;4993752;28;20034;-86
2022/08/28 07:26:14;;;;;;;10.82;3.50;;;;;;;;;;4978178;28;20057;-88
2022/08/28 07:28:40;;;;;;;8.98;3.40;;;;;;;;;;4993654;28;20121;-85
2022/08/28 07:31:13;;;;;;;10.55;3.80;;;;;;;;;;4993449;28;20041;-84
2022/08/28 07:33:41;;;;;;;5.60;2.80;;;;;;;;;;4993588;28;20030;-85
2022/08/28 07:36:08;;;;;;;7.22;3.00;;;;;;;;;;5009730;28;20041;-87
2022/08/28 07:38:34;;;;;;;12.77;3.40;;;;;;;;;;4977347;28;20023;-86
2022/08/28 07:41:01;;;;;;;9.63;3.50;;;;;;;;;;4982426;28;20037;-83
2022/08/28 07:46:11;;;;;;;9.70;2.95;;;;;;;;;;4994752;28;20037;-85
2022/08/28 07:48:39;;;;;;;8.07;2.92;;;;;;;;;;4996218;28;20504;-85
2022/08/28 07:51:04;;;;;;;7.40;3.00;;;;;;;;;;4963045;28;20038;-85
2022/08/28 07:53:31;;;;;;;10.00;3.00;;;;;;;;;;4962109;28;20087;-84
2022/08/28 07:55:57;;;;;;;8.13;3.30;;;;;;;;;;4979285;28;20037;-85
2022/08/28 07:58:26;;;;;;;5.43;3.13;;;;;;;;;;4979560;28;20060;-85
2022/08/28 08:00:52;;;;;;;7.30;2.60;;;;;;;;;;4963857;28;20034;-85
2022/08/28 08:03:17;;;;;;;8.10;3.38;;;;;;;;;;4980026;28;20057;-85
2022/08/28 08:05:53;;;;;;;9.18;2.80;;;;;;;;;;4979808;28;20493;-85
2022/08/28 08:08:20;;;;;;;8.52;3.03;;;;;;;;;;4979771;28;20037;-85
2022/08/28 08:10:57;;;;;;;8.13;2.50;;;;;;;;;;4963567;28;20049;-85
2022/08/28 08:13:23;;;;;;;5.15;2.45;;;;;;;;;;5012434;28;20067;-85
2022/08/28 08:15:50;;;;;;;6.03;2.55;;;;;;;;;;4963851;28;20045;-85
2022/08/28 08:18:16;;;;;;;9.70;2.70;;;;;;;;;;4980018;28;20042;-86
2022/08/28 08:20:41;;;;;;;6.32;2.67;;;;;;;;;;4959797;28;20031;-85
2022/08/28 08:23:08;;;;;;;8.77;2.92;;;;;;;;;;4992747;28;20039;-85
2022/08/28 08:25:34;;;;;;;6.25;2.80;;;;;;;;;;4992291;28;20085;-85
2022/08/28 08:27:59;;;;;;;7.10;2.50;;;;;;;;;;4992718;28;20393;-85
2022/08/28 08:30:24;;;;;;;8.25;2.67;;;;;;;;;;4992058;28;20053;-85
2022/08/28 08:32:51;;;;;;;5.43;2.35;;;;;;;;;;5007703;28;20030;-85
2022/08/28 08:35:17;;;;;;;6.25;2.53;;;;;;;;;;4992256;28;20057;-85
2022/08/28 08:37:43;;;;;;;6.15;2.83;;;;;;;;;;5008656;28;20030;-85
2022/08/28 08:40:14;;;;;;;6.43;2.70;;;;;;;;;;4992072;28;20405;-85
2022/08/28 08:42:42;;;;;;;6.45;1.98;;;;;;;;;;5010472;28;20195;-84
2022/08/28 08:45:09;;;;;;;5.20;2.17;;;;;;;;;;5011621;28;20108;-85
2022/08/28 08:47:42;;;;;;;5.97;2.65;;;;;;;;;;4979274;28;20034;-85
2022/08/28 08:50:12;;;;;;;6.15;2.50;;;;;;;;;;4979452;28;20100;-85
2022/08/28 08:53:00;;;;;;;5.95;2.47;;;;;;;;;;4962957;28;20042;-85
2022/08/28 08:55:36;;;;;;;6.03;2.85;;;;;;;;;;5011214;28;20076;-84
2022/08/28 08:58:05;;;;;;;5.38;2.42;;;;;;;;;;4964483;28;20030;-84
2022/08/28 09:00:57;;;;;;;5.30;2.65;;;;;;;;;;4979088;28;20044;-85
2022/08/28 09:03:37;;;;;;;4.38;1.92;;;;;;;;;;5028123;28;20042;-85
2022/08/28 09:06:05;;;;;;;5.32;2.08;;;;;;;;;;4964664;28;20033;-84
2022/08/28 09:08:35;;;;;;;4.32;1.73;;;;;;;;;;4962362;28;20034;-85
2022/08/28 09:11:05;;;;;;;6.57;2.08;;;;;;;;;;4962872;28;20484;-85
2022/08/28 09:13:37;;;;;;;4.65;2.20;;;;;;;;;;4963037;28;20034;-86
2022/08/28 09:16:03;;;;;;;5.32;2.15;;;;;;;;;;4979496;28;20085;-85
2022/08/28 09:18:33;;;;;;;4.15;1.75;;;;;;;;;;4978679;28;20034;-85
2022/08/28 09:20:59;;;;;;;5.75;2.08;;;;;;;;;;4962482;28;20034;-84
2022/08/28 09:23:26;;;;;;;6.05;2.08;;;;;;;;;;4978264;28;20029;-84
2022/08/28 09:25:54;;;;;;;4.68;1.77;;;;;;;;;;4962892;28;20124;-84
2022/08/28 09:28:26;;;;;;;5.95;2.58;;;;;;;;;;5010765;28;20056;-84
2022/08/28 09:30:59;;;;;;;4.32;2.10;;;;;;;;;;5010337;28;20044;-85
2022/08/28 09:33:30;;;;;;;5.97;2.17;;;;;;;;;;4978633;28;20025;-84
2022/08/28 09:35:55;;;;;;;4.88;1.85;;;;;;;;;;4962765;28;20041;-85
2022/08/28 09:38:23;;;;;;;5.38;1.92;;;;;;;;;;4978176;28;20041;-85
2022/08/28 09:43:50;;;;;;;4.18;1.77;;;;;;;;;;4977260;28;20038;-84
2022/08/28 09:46:20;;;;;;;4.43;2.35;;;;;;;;;;4994420;28;20113;-84
2022/08/28 09:48:49;;;;;;;5.10;2.67;;;;;;;;;;5011098;28;20528;-84
2022/08/28 09:51:20;;;;;;;5.35;1.85;;;;;;;;;;4995043;28;20033;-85
2022/08/28 09:53:52;;;;;;;4.53;2.23;;;;;;;;;;5010811;28;20070;-86
2022/08/28 09:56:21;;;;;;;;;;;;;;;;;;5011217;28;20292;-85
2022/08/28 09:58:58;;;;;;;5.90;2.35;;;;;;;;;;5010547;28;19909;-85
2022/08/28 10:01:35;;;;;;;5.35;2.25;;;;;;;;;;5010528;28;20030;-85
2022/08/28 10:04:39;;;;;;;4.65;1.90;;;;;;;;;;5027286;28;20048;-85
2022/08/28 10:07:09;;;;;;;7.10;2.30;;;;;;;;;;5024848;28;20524;-84
2022/08/28 10:09:57;;;;;;;5.88;2.47;;;;;;;;;;5010723;28;20026;-85
2022/08/28 10:12:32;;;;;;;5.93;2.13;;;;;;;;;;5010601;28;20136;-85
2022/08/28 10:15:44;;;;;;;5.90;2.15;;;;;;;;;;5010648;28;20034;-84
2022/08/28 10:18:50;;;;;;;9.70;2.10;;;;;;;;;;4990173;28;20516;-84
2022/08/28 10:21:34;;;;;;;4.70;1.70;;;;;;;;;;4995782;28;20089;-83
2022/08/28 10:24:05;;;;;;;6.95;1.80;;;;;;;;;;4974555;28;20027;-84
2022/08/28 10:26:53;;;;;;;5.22;2.50;;;;;;;;;;4974609;28;20038;-84
2022/08/28 10:29:26;;;;;;;5.13;2.03;;;;;;;;;;4974480;28;20060;-84
2022/08/28 10:32:11;;;;;;;5.32;2.13;;;;;;;;;;4974072;28;20077;-83
2022/08/28 10:34:36;;;;;;;6.75;2.30;;;;;;;;;;4974352;28;20030;-84
2022/08/28 10:37:02;;;;;;;6.43;2.28;;;;;;;;;;4974437;28;20031;-83
2022/08/28 10:39:43;;;;;;;6.93;2.28;;;;;;;;;;4974296;28;20030;-84
2022/08/28 10:42:09;;;;;;;4.72;1.90;;;;;;;;;;4988330;28;20046;-83
2022/08/28 10:44:47;;;;;;;5.32;2.03;;;;;;;;;;4977315;28;20022;-84
2022/08/28 10:47:14;;;;;;;6.32;2.33;;;;;;;;;;4993609;28;20539;-84
2022/08/28 10:49:41;;;;;;;5.50;2.10;;;;;;;;;;4976621;28;20161;-83
2022/08/28 10:52:24;;;;;;;6.65;2.42;;;;;;;;;;4974189;28;20053;-85
2022/08/28 10:55:10;;;;;;;6.65;2.97;;;;;;;;;;5005726;28;20841;-84
2022/08/28 10:57:40;;;;;;;6.45;2.25;;;;;;;;;;5011804;28;20038;-84
2022/08/28 11:00:10;;;;;;;9.75;2.53;;;;;;;;;;4979261;28;20038;-84
2022/08/28 11:02:36;;;;;;;6.57;2.00;;;;;;;;;;4980399;28;20049;-84
2022/08/28 11:05:02;;;;;;;6.22;2.20;;;;;;;;;;4980180;28;20040;-84
2022/08/28 11:07:33;;;;;;;6.25;2.95;;;;;;;;;;4980821;28;20137;-85
2022/08/28 11:10:48;;;;;;;6.50;2.65;;;;;;;;;;5013706;28;20034;-85
2022/08/28 11:13:34;;;;;;;6.15;2.25;;;;;;;;;;4918332;29;20131;-86
2022/08/28 11:16:08;;;;;;;4.22;2.22;;;;;;;;;;4934777;29;20046;-86
2022/08/28 11:18:44;;;;;;;6.90;2.03;;;;;;;;;;5002744;28;20519;-84
2022/08/28 11:21:20;;;;;;;4.88;2.25;;;;;;;;;;4980310;28;20061;-86
2022/08/28 11:23:50;;;;;;;8.98;2.25;;;;;;;;;;5045843;28;20052;-86
2022/08/28 11:26:25;;;;;;;8.10;2.90;;;;;;;;;;4980953;28;20050;-85
2022/08/28 11:28:50;;;;;;;12.43;5.70;;;;;;;;;;4997393;28;20116;-85
2022/08/28 11:31:17;;;;;;;10.50;3.78;;;;;;;;;;4980378;28;20168;-85
2022/08/28 11:33:49;;;;;;;8.40;2.85;;;;;;;;;;5029451;28;20465;-86
2022/08/28 11:36:20;;;;;;;10.07;3.13;;;;;;;;;;4981188;28;20030;-85
2022/08/28 11:38:52;;;;;;;6.50;2.25;;;;;;;;;;5028206;28;20050;-88
2022/08/28 11:41:58;;;;;;;5.65;2.47;;;;;;;;;;4996798;28;20034;-87
2022/08/28 11:44:27;;;;;;;4.82;2.03;;;;;;;;;;4993712;28;20570;-87
2022/08/28 11:46:55;;;;;;;5.15;2.60;;;;;;;;;;4992377;28;20041;-87
2022/08/28 11:49:39;;;;;;;4.78;2.25;;;;;;;;;;4996859;28;20034;-86
2022/08/28 11:52:23;;;;;;;4.53;2.03;;;;;;;;;;4996569;28;20030;-85
2022/08/28 11:55:06;;;;;;;4.88;2.25;;;;;;;;;;4996332;28;20080;-86
2022/08/28 11:57:58;;;;;;;6.35;2.35;;;;;;;;;;5013542;28;20034;-85
2022/08/28 12:00:24;;;;;;;4.70;1.60;;;;;;;;;;5009405;28;20046;-86
2022/08/28 12:03:07;;;;;;;8.20;2.20;;;;;;;;;;5011182;28;20042;-83
2022/08/28 12:05:38;;;;;;;4.22;1.55;;;;;;;;;;5011855;28;20088;-83
2022/08/28 12:08:04;;;;;;;6.10;1.70;;;;;;;;;;4963518;28;20026;-82
2022/08/28 12:10:32;;;;;;;6.15;1.92;;;;;;;;;;4995581;28;20041;-84
2022/08/28 12:13:06;;;;;;;5.35;1.83;;;;;;;;;;4995375;28;20037;-83
2022/08/28 12:15:32;;;;;;;5.10;1.95;;;;;;;;;;4963960;28;20045;-82
2022/08/28 12:17:58;;;;;;;3.20;1.25;;;;;;;;;;4994865;28;20030;-82
2022/08/28 12:20:33;;;;;;;6.60;1.88;;;;;;;;;;5011280;28;20415;-83
2022/08/28 12:23:01;;;;;;;3.20;1.40;;;;;;;;;;5027561;28;20127;-83
2022/08/28 12:25:36;;;;;;;3.67;1.50;;;;;;;;;;4979416;28;20045;-84
2022/08/28 12:28:06;;;;;;;5.10;1.60;;;;;;;;;;5011945;28;20029;-83
2022/08/28 12:30:35;;;;;;;5.07;1.73;;;;;;;;;;4979027;28;20045;-83
2022/08/28 12:33:04;;;;;;;6.28;1.75;;;;;;;;;;5011595;28;20084;-83
2022/08/28 12:35:29;;;;;;;5.47;2.13;;;;;;;;;;5028252;28;20385;-82
2022/08/28 12:37:54;;;;;;;7.15;1.98;;;;;;;;;;4994949;28;20068;-83
2022/08/28 12:40:30;;;;;;;5.35;1.70;;;;;;;;;;5011607;28;20401;-83
2022/08/28 12:43:00;;;;;;;6.97;2.05;;;;;;;;;;5028654;28;20041;-82
2022/08/28 12:45:37;;;;;;;4.00;1.48;;;;;;;;;;5010963;28;20041;-83
2022/08/28 12:48:09;;;;;;;3.95;1.50;;;;;;;;;;4978464;28;20026;-83
2022/08/28 12:50:37;;;;;;;8.52;2.03;;;;;;;;;;4963612;28;20064;-83
2022/08/28 12:53:05;;;;;;;4.80;2.03;;;;;;;;;;4962599;28;20161;-82
2022/08/28 12:55:31;;;;;;;7.05;2.10;;;;;;;;;;4978952;28;20514;-83
2022/08/28 12:57:57;;;;;;;6.07;2.05;;;;;;;;;;4994999;28;20044;-82
2022/08/28 13:00:24;;;;;;;6.47;1.75;;;;;;;;;;4962142;28;20038;-83
2022/08/28 13:02:52;;;;;;;4.60;1.98;;;;;;;;;;4962469;28;20589;-83
2022/08/28 13:05:30;;;;;;;4.70;2.05;;;;;;;;;;4978878;28;20030;-84
2022/08/28 13:07:56;;;;;;;4.78;1.40;;;;;;;;;;4962399;28;20038;-83
2022/08/28 13:10:24;;;;;;;3.67;1.48;;;;;;;;;;4978256;28;20057;-83
2022/08/28 13:12:57;;;;;;;8.07;2.22;;;;;;;;;;4978190;28;20048;-83
2022/08/28 13:15:44;;;;;;;6.50;1.80;;;;;;;;;;4979068;28;20038;-83
2022/08/28 13:18:10;;;;;;;2.75;1.17;;;;;;;;;;5010475;28;20038;-83
2022/08/28 13:20:36;;;;;;;5.28;1.67;;;;;;;;;;4977445;28;20068;-83
2022/08/28 13:23:02;;;;;;;3.13;1.20;;;;;;;;;;4994527;28;20038;-82
2022/08/28 13:25:30;;;;;;;4.88;1.70;;;;;;;;;;4966261;28;20054;-81
2022/08/28 13:28:01;;;;;;;5.20;1.63;;;;;;;;;;5043541;28;20060;-82
2022/08/28 13:30:27;;;;;;;5.07;1.50;;;;;;;;;;4986047;28;20038;-82
2022/08/28 13:33:01;;;;;;;2.78;1.23;;;;;;;;;;5023243;28;20042;-82
2022/08/28 13:35:26;;;;;;;4.80;1.27;;;;;;;;;;4990345;28;20030;-82
2022/08/28 13:37:56;;;;;;;3.00;1.35;;;;;;;;;;5007400;28;20049;-82
2022/08/28 13:40:27;;;;;;;4.03;1.20;;;;;;;;;;4990666;28;20034;-82
2022/08/28 13:42:56;;;;;;;3.15;1.20;;;;;;;;;;4961508;28;20084;-82
2022/08/28 13:45:22;;;;;;;4.47;1.27;;;;;;;;;;5010362;28;20042;-82
2022/08/28 13:47:47;;;;;;;4.72;1.35;;;;;;;;;;4993818;28;20532;-82
2022/08/28 13:50:13;;;;;;;4.88;1.30;;;;;;;;;;4962043;28;20092;-82
2022/08/28 13:52:39;;;;;;;4.00;1.08;;;;;;;;;;4961633;28;20041;-83
2022/08/28 13:55:05;;;;;;;3.28;1.38;;;;;;;;;;4978283;28;20540;-83
2022/08/28 13:57:31;;;;;;;5.68;1.95;;;;;;;;;;4978191;28;20515;-83
2022/08/28 13:59:56;;;;;;;3.53;1.35;;;;;;;;;;4977825;28;20034;-82
2022/08/28 14:05:10;;;;;;;4.10;0.93;;;;;;;;;;4999076;28;20381;-84
2022/08/28 14:07:38;;;;;;;12.13;2.13;;;;;;;;;;4979113;28;20046;-87
2022/08/28 14:10:04;;;;;;;17.33;2.20;;;;;;;;;;4962214;28;20030;-85
2022/08/28 14:12:30;;;;;;;8.30;1.92;;;;;;;;;;4961292;28;20050;-82
2022/08/28 14:14:55;;;;;;;7.00;1.70;;;;;;;;;;4977265;28;20580;-82
2022/08/28 14:17:21;;;;;;;8.60;1.92;;;;;;;;;;5007663;28;20404;-82
2022/08/28 14:19:47;;;;;;;11.02;2.45;;;;;;;;;;4997506;28;20386;-83
2022/08/28 14:22:16;;;;;;;4.70;1.45;;;;;;;;;;4980325;28;20069;-83
2022/08/28 14:24:41;;;;;;;9.02;1.88;;;;;;;;;;4976129;28;20057;-84
2022/08/28 14:27:10;;;;;;;7.13;1.33;;;;;;;;;;4977370;28;20034;-83
2022/08/28 14:29:38;;;;;;;17.02;1.95;;;;;;;;;;4977391;28;20088;-83
2022/08/28 14:32:04;;;;;;;8.00;1.60;;;;;;;;;;5013308;28;20038;-82
2022/08/28 14:34:30;;;;;;;4.22;1.65;;;;;;;;;;4996178;28;20124;-82
2022/08/28 14:36:56;;;;;;;7.05;1.90;;;;;;;;;;4984596;28;20056;-84
2022/08/28 14:39:23;;;;;;;4.47;1.80;;;;;;;;;;5000387;28;20029;-82
2022/08/28 14:41:50;;;;;;;5.50;1.58;;;;;;;;;;4985216;28;20109;-82
2022/08/28 14:44:18;;;;;;;3.85;1.15;;;;;;;;;;4993359;28;20038;-82
2022/08/28 14:46:48;;;;;;;4.30;1.15;;;;;;;;;;5004066;28;20156;-83
2022/08/28 14:49:14;;;;;;;3.30;1.25;;;;;;;;;;4997776;28;20042;-84
2022/08/28 14:51:41;;;;;;;4.85;1.73;;;;;;;;;;4979149;28;20045;-82
2022/08/28 14:54:07;;;;;;;4.22;1.33;;;;;;;;;;5000147;28;20084;-82
2022/08/28 14:56:33;;;;;;;5.35;1.15;;;;;;;;;;4983854;28;20043;-83
2022/08/28 14:58:59;;;;;;;9.27;1.55;;;;;;;;;;5000708;28;20025;-85
2022/08/28 15:01:32;;;;;;;5.32;1.00;;;;;;;;;;5000307;28;20431;-85
2022/08/28 15:03:59;;;;;;;4.85;1.05;;;;;;;;;;5001078;28;20033;-84